PAL212 WBKK-RPLL
Flight info
| Callsign | PAL212 |
|---|---|
| Flight time | 1h 59m |
| Altitude | 34000 |
| Route | VETAG1F VETAG DCT OSANU M646 TOKON DCT LUBAN LUBAN7R |
| Aircraft | A333/H-SDE3GHIJ2J3J5M1RVWXY/LB2D1 |
Departure
| Time | 2026-05-05 10:14 |
|---|---|
| Airport | Kota Kinabalu International Airport (WBKK) |
Arrival
| Time | 2026-05-05 12:14 |
|---|---|
| Airport | Ninoy Aquino International Airport (RPLL) |
| Time | Latitude | Longitude | Altitude | Speed | Heading |
|---|---|---|---|---|---|
| 2026-05-05 09:56 | 5.92123 | 116.05029 | 33 ft | 0 kts | 68° |
| 2026-05-05 10:02 | 5.92118 | 116.05016 | 32 ft | 2 kts | 66° |
| 2026-05-05 10:02 | 5.92111 | 116.05001 | 32 ft | 2 kts | 64° |
| 2026-05-05 10:03 | 5.92103 | 116.04986 | 30 ft | 2 kts | 60° |
| 2026-05-05 10:03 | 5.92094 | 116.04972 | 30 ft | 2 kts | 48° |
| 2026-05-05 10:03 | 5.92082 | 116.04961 | 30 ft | 2 kts | 11° |
| 2026-05-05 10:03 | 5.92069 | 116.04962 | 31 ft | 1 kts | 336° |
| 2026-05-05 10:08 | 5.92075 | 116.04959 | 30 ft | 2 kts | 336° |
| 2026-05-05 10:08 | 5.92092 | 116.04952 | 31 ft | 3 kts | 338° |
| 2026-05-05 10:08 | 5.92116 | 116.04943 | 32 ft | 4 kts | 339° |
| 2026-05-05 10:09 | 5.92148 | 116.04930 | 32 ft | 6 kts | 338° |
| 2026-05-05 10:09 | 5.92189 | 116.04914 | 33 ft | 7 kts | 338° |
| 2026-05-05 10:09 | 5.92239 | 116.04894 | 33 ft | 8 kts | 338° |
| 2026-05-05 10:09 | 5.92295 | 116.04871 | 33 ft | 9 kts | 338° |
| 2026-05-05 10:10 | 5.92359 | 116.04846 | 33 ft | 10 kts | 339° |
| 2026-05-05 10:10 | 5.92406 | 116.04795 | 32 ft | 11 kts | 290° |
| 2026-05-05 10:10 | 5.92379 | 116.04737 | 32 ft | 10 kts | 206° |
| 2026-05-05 10:10 | 5.92314 | 116.04707 | 32 ft | 11 kts | 204° |
| 2026-05-05 10:11 | 5.92243 | 116.04677 | 32 ft | 12 kts | 200° |
| 2026-05-05 10:11 | 5.92166 | 116.04646 | 32 ft | 13 kts | 202° |
| 2026-05-05 10:11 | 5.92082 | 116.04610 | 32 ft | 14 kts | 203° |
| 2026-05-05 10:11 | 5.91992 | 116.04572 | 32 ft | 14 kts | 203° |
| 2026-05-05 10:12 | 5.91896 | 116.04532 | 32 ft | 15 kts | 202° |
| 2026-05-05 10:12 | 5.91799 | 116.04486 | 32 ft | 13 kts | 220° |
| 2026-05-05 10:12 | 5.91789 | 116.04431 | 32 ft | 7 kts | 283° |
| 2026-05-05 10:12 | 5.91809 | 116.04380 | 32 ft | 8 kts | 293° |
| 2026-05-05 10:13 | 5.91841 | 116.04334 | 32 ft | 6 kts | 334° |
| 2026-05-05 10:13 | 5.91885 | 116.04338 | 32 ft | 7 kts | 19° |
| 2026-05-05 10:13 | 5.91942 | 116.04363 | 32 ft | 17 kts | 23° |
| 2026-05-05 10:13 | 5.92237 | 116.04488 | 32 ft | 77 kts | 22° |
| 2026-05-05 10:14 | 5.92911 | 116.04773 | 33 ft | 132 kts | 22° |
| 2026-05-05 10:14 | 5.93913 | 116.05197 | 51 ft | 178 kts | 22° |
| 2026-05-05 10:14 | 5.95100 | 116.05720 | 583 ft | 194 kts | 24° |
| 2026-05-05 10:14 | 5.96367 | 116.06269 | 1353 ft | 201 kts | 21° |
| 2026-05-05 10:15 | 5.97727 | 116.06794 | 1887 ft | 219 kts | 21° |
| 2026-05-05 10:15 | 5.99201 | 116.07358 | 2461 ft | 231 kts | 21° |
| 2026-05-05 10:15 | 6.00701 | 116.07944 | 3253 ft | 233 kts | 21° |
| 2026-05-05 10:15 | 6.02208 | 116.08542 | 4114 ft | 232 kts | 22° |
| 2026-05-05 10:16 | 6.03715 | 116.09146 | 4930 ft | 234 kts | 23° |
| 2026-05-05 10:16 | 6.05237 | 116.09761 | 5675 ft | 239 kts | 23° |
| 2026-05-05 10:16 | 6.06774 | 116.10383 | 6410 ft | 243 kts | 24° |
| 2026-05-05 10:16 | 6.08357 | 116.11026 | 7140 ft | 246 kts | 23° |
| 2026-05-05 10:17 | 6.09951 | 116.11673 | 7920 ft | 248 kts | 23° |
| 2026-05-05 10:17 | 6.11554 | 116.12324 | 8688 ft | 250 kts | 23° |
| 2026-05-05 10:17 | 6.13179 | 116.12985 | 9453 ft | 253 kts | 23° |
| 2026-05-05 10:17 | 6.14804 | 116.13645 | 10152 ft | 256 kts | 23° |
| 2026-05-05 10:18 | 6.16463 | 116.14319 | 10833 ft | 258 kts | 23° |
| 2026-05-05 10:18 | 6.18110 | 116.15064 | 11508 ft | 260 kts | 31° |
| 2026-05-05 10:18 | 6.19649 | 116.16096 | 11949 ft | 275 kts | 37° |
| 2026-05-05 10:18 | 6.21233 | 116.17318 | 12113 ft | 299 kts | 39° |
| 2026-05-05 10:19 | 6.22929 | 116.18667 | 12277 ft | 322 kts | 39° |
| 2026-05-05 10:19 | 6.24751 | 116.20116 | 12434 ft | 344 kts | 39° |
| 2026-05-05 10:19 | 6.26688 | 116.21650 | 12589 ft | 364 kts | 39° |
| 2026-05-05 10:19 | 6.28701 | 116.23239 | 12741 ft | 381 kts | 39° |
| 2026-05-05 10:20 | 6.30826 | 116.24911 | 12898 ft | 396 kts | 38° |
| 2026-05-05 10:20 | 6.33036 | 116.26642 | 13086 ft | 409 kts | 38° |
| 2026-05-05 10:20 | 6.35323 | 116.28427 | 13233 ft | 421 kts | 38° |
| 2026-05-05 10:20 | 6.37615 | 116.30228 | 14086 ft | 408 kts | 39° |
| 2026-05-05 10:21 | 6.39793 | 116.31944 | 15325 ft | 388 kts | 39° |
| 2026-05-05 10:21 | 6.41888 | 116.33595 | 16308 ft | 380 kts | 39° |
| 2026-05-05 10:21 | 6.43983 | 116.35247 | 16815 ft | 385 kts | 39° |
| 2026-05-05 10:21 | 6.46106 | 116.36933 | 17214 ft | 392 kts | 40° |
| 2026-05-05 10:22 | 6.48077 | 116.38839 | 17731 ft | 394 kts | 48° |
| 2026-05-05 10:22 | 6.49855 | 116.40898 | 18228 ft | 397 kts | 51° |
| 2026-05-05 10:22 | 6.51632 | 116.43051 | 18688 ft | 399 kts | 51° |
| 2026-05-05 10:22 | 6.53399 | 116.45209 | 19105 ft | 402 kts | 51° |
| 2026-05-05 10:23 | 6.55186 | 116.47389 | 19530 ft | 404 kts | 51° |
| 2026-05-05 10:23 | 6.56995 | 116.49575 | 19958 ft | 407 kts | 50° |
| 2026-05-05 10:23 | 6.58979 | 116.51604 | 20371 ft | 411 kts | 42° |
| 2026-05-05 10:23 | 6.61207 | 116.53437 | 20780 ft | 414 kts | 38° |
| 2026-05-05 10:24 | 6.63531 | 116.55155 | 21183 ft | 417 kts | 36° |
| 2026-05-05 10:24 | 6.65930 | 116.56829 | 21586 ft | 420 kts | 35° |
| 2026-05-05 10:24 | 6.68353 | 116.58485 | 21975 ft | 422 kts | 35° |
| 2026-05-05 10:24 | 6.70772 | 116.60134 | 22340 ft | 425 kts | 35° |
| 2026-05-05 10:25 | 6.73220 | 116.61816 | 22710 ft | 427 kts | 36° |
| 2026-05-05 10:25 | 6.75680 | 116.63521 | 23097 ft | 430 kts | 36° |
| 2026-05-05 10:25 | 6.78150 | 116.65246 | 23451 ft | 432 kts | 36° |
| 2026-05-05 10:25 | 6.80631 | 116.66987 | 23746 ft | 435 kts | 36° |
| 2026-05-05 10:26 | 6.83119 | 116.68738 | 24030 ft | 438 kts | 36° |
| 2026-05-05 10:26 | 6.85621 | 116.70501 | 24335 ft | 440 kts | 36° |
| 2026-05-05 10:26 | 6.88111 | 116.72256 | 24646 ft | 442 kts | 36° |
| 2026-05-05 10:26 | 6.90641 | 116.74039 | 24952 ft | 445 kts | 36° |
| 2026-05-05 10:27 | 6.93177 | 116.75826 | 25263 ft | 447 kts | 36° |
| 2026-05-05 10:27 | 6.95730 | 116.77624 | 25578 ft | 449 kts | 36° |
| 2026-05-05 10:27 | 6.98298 | 116.79433 | 25887 ft | 452 kts | 36° |
| 2026-05-05 10:27 | 7.00880 | 116.81252 | 26211 ft | 454 kts | 36° |
| 2026-05-05 10:28 | 7.03481 | 116.83085 | 26551 ft | 456 kts | 36° |
| 2026-05-05 10:28 | 7.06087 | 116.84921 | 26864 ft | 459 kts | 36° |
| 2026-05-05 10:28 | 7.07828 | 116.86147 | 27054 ft | 460 kts | 36° |
| 2026-05-05 10:28 | 7.10463 | 116.88005 | 27373 ft | 462 kts | 36° |
| 2026-05-05 10:29 | 7.13112 | 116.89871 | 27704 ft | 464 kts | 36° |
| 2026-05-05 10:29 | 7.16623 | 116.92347 | 28083 ft | 467 kts | 36° |
| 2026-05-05 10:29 | 7.19301 | 116.94235 | 28396 ft | 470 kts | 36° |
| 2026-05-05 10:29 | 7.21076 | 116.95487 | 28593 ft | 471 kts | 36° |
| 2026-05-05 10:30 | 7.23772 | 116.97388 | 28872 ft | 474 kts | 36° |
| 2026-05-05 10:30 | 7.26480 | 116.99298 | 29149 ft | 476 kts | 36° |
| 2026-05-05 10:30 | 7.29192 | 117.01212 | 29462 ft | 478 kts | 36° |
| 2026-05-05 10:30 | 7.31926 | 117.03141 | 29746 ft | 480 kts | 36° |
| 2026-05-05 10:31 | 7.34667 | 117.05075 | 29987 ft | 483 kts | 36° |
| 2026-05-05 10:31 | 7.37430 | 117.07026 | 30205 ft | 485 kts | 36° |
| 2026-05-05 10:31 | 7.40204 | 117.08984 | 30448 ft | 487 kts | 36° |
| 2026-05-05 10:31 | 7.42982 | 117.10945 | 30690 ft | 488 kts | 36° |
| 2026-05-05 10:32 | 7.45764 | 117.12910 | 30933 ft | 490 kts | 36° |
| 2026-05-05 10:32 | 7.48571 | 117.14892 | 31156 ft | 492 kts | 36° |
| 2026-05-05 10:32 | 7.51375 | 117.16873 | 31415 ft | 493 kts | 36° |
| 2026-05-05 10:32 | 7.54187 | 117.18859 | 31800 ft | 491 kts | 36° |
| 2026-05-05 10:33 | 7.56939 | 117.20803 | 32194 ft | 489 kts | 36° |
| 2026-05-05 10:33 | 7.59725 | 117.22773 | 32491 ft | 489 kts | 36° |
| 2026-05-05 10:33 | 7.62513 | 117.24743 | 32774 ft | 490 kts | 36° |
| 2026-05-05 10:33 | 7.65313 | 117.26723 | 33035 ft | 491 kts | 36° |
| 2026-05-05 10:34 | 7.68111 | 117.28702 | 33365 ft | 490 kts | 36° |
| 2026-05-05 10:34 | 7.70898 | 117.30681 | 33678 ft | 490 kts | 36° |
| 2026-05-05 10:34 | 7.73682 | 117.32668 | 33825 ft | 485 kts | 36° |
| 2026-05-05 10:34 | 7.76412 | 117.34619 | 33847 ft | 478 kts | 36° |
| 2026-05-05 10:35 | 7.81782 | 117.38466 | 33848 ft | 475 kts | 36° |
| 2026-05-05 10:35 | 7.87169 | 117.42325 | 33851 ft | 475 kts | 36° |
| 2026-05-05 10:36 | 7.92567 | 117.46190 | 33851 ft | 475 kts | 36° |
| 2026-05-05 10:36 | 7.97958 | 117.50049 | 33851 ft | 474 kts | 37° |
| 2026-05-05 10:37 | 8.03319 | 117.53889 | 33851 ft | 474 kts | 37° |
| 2026-05-05 10:37 | 8.08707 | 117.57749 | 33855 ft | 473 kts | 36° |
| 2026-05-05 10:38 | 8.14019 | 117.61555 | 33854 ft | 466 kts | 36° |
| 2026-05-05 10:38 | 8.19303 | 117.65343 | 33853 ft | 465 kts | 36° |
| 2026-05-05 10:39 | 8.24537 | 117.69096 | 33856 ft | 464 kts | 36° |
| 2026-05-05 10:39 | 8.29847 | 117.72904 | 33856 ft | 464 kts | 36° |
| 2026-05-05 10:40 | 8.35079 | 117.76658 | 33859 ft | 464 kts | 36° |
| 2026-05-05 10:40 | 8.40342 | 117.80435 | 33860 ft | 464 kts | 36° |
| 2026-05-05 10:41 | 8.45602 | 117.84211 | 33864 ft | 463 kts | 36° |
| 2026-05-05 10:41 | 8.50861 | 117.87988 | 33864 ft | 463 kts | 36° |
| 2026-05-05 10:42 | 8.58708 | 117.93626 | 33867 ft | 463 kts | 36° |
| 2026-05-05 10:43 | 8.63970 | 117.97409 | 33868 ft | 463 kts | 36° |
| 2026-05-05 10:43 | 8.69219 | 118.01184 | 33867 ft | 463 kts | 36° |
| 2026-05-05 10:44 | 8.74421 | 118.04927 | 33873 ft | 460 kts | 35° |
| 2026-05-05 10:44 | 8.79656 | 118.08695 | 33867 ft | 461 kts | 35° |
| 2026-05-05 10:45 | 8.84892 | 118.12465 | 33870 ft | 462 kts | 35° |
| 2026-05-05 10:45 | 8.90127 | 118.16236 | 33870 ft | 462 kts | 35° |
| 2026-05-05 10:46 | 8.95368 | 118.20012 | 33870 ft | 462 kts | 35° |
| 2026-05-05 10:46 | 9.00609 | 118.23788 | 33870 ft | 462 kts | 35° |
| 2026-05-05 10:47 | 9.05809 | 118.27537 | 33873 ft | 461 kts | 34° |
| 2026-05-05 10:47 | 9.11024 | 118.31305 | 33876 ft | 461 kts | 34° |
| 2026-05-05 10:48 | 9.16240 | 118.35085 | 33876 ft | 461 kts | 35° |
| 2026-05-05 10:48 | 9.21465 | 118.38876 | 33878 ft | 461 kts | 35° |
| 2026-05-05 10:49 | 9.26667 | 118.42650 | 33878 ft | 461 kts | 35° |
| 2026-05-05 10:49 | 9.31879 | 118.46433 | 33878 ft | 460 kts | 35° |
| 2026-05-05 10:50 | 9.37056 | 118.50192 | 33881 ft | 461 kts | 35° |
| 2026-05-05 10:50 | 9.42287 | 118.53992 | 33881 ft | 461 kts | 35° |
| 2026-05-05 10:51 | 9.47515 | 118.57791 | 33876 ft | 461 kts | 35° |
| 2026-05-05 10:51 | 9.52720 | 118.61576 | 33870 ft | 462 kts | 34° |
| 2026-05-05 10:52 | 9.57912 | 118.65352 | 33862 ft | 462 kts | 34° |
| 2026-05-05 10:52 | 9.63135 | 118.69153 | 33859 ft | 463 kts | 35° |
| 2026-05-05 10:53 | 9.68389 | 118.72979 | 33857 ft | 465 kts | 35° |
| 2026-05-05 10:53 | 9.73730 | 118.76692 | 33854 ft | 465 kts | 28° |
| 2026-05-05 10:54 | 9.79507 | 118.79619 | 33856 ft | 464 kts | 24° |
| 2026-05-05 10:54 | 9.85396 | 118.82342 | 33870 ft | 465 kts | 23° |
| 2026-05-05 10:55 | 9.91253 | 118.84990 | 33810 ft | 464 kts | 23° |
| 2026-05-05 10:55 | 9.97193 | 118.87644 | 33724 ft | 464 kts | 22° |
| 2026-05-05 10:56 | 10.03109 | 118.90248 | 33663 ft | 464 kts | 22° |
| 2026-05-05 10:56 | 10.09020 | 118.92805 | 33599 ft | 464 kts | 22° |
| 2026-05-05 10:57 | 10.14973 | 118.95333 | 33538 ft | 463 kts | 21° |
| 2026-05-05 10:57 | 10.20939 | 118.97811 | 33471 ft | 463 kts | 21° |
| 2026-05-05 10:58 | 10.26930 | 119.00241 | 33416 ft | 463 kts | 21° |
| 2026-05-05 10:58 | 10.32935 | 119.02613 | 33349 ft | 462 kts | 20° |
| 2026-05-05 10:59 | 10.38948 | 119.04931 | 33288 ft | 462 kts | 20° |
| 2026-05-05 10:59 | 10.44936 | 119.07178 | 33212 ft | 461 kts | 19° |
| 2026-05-05 11:00 | 10.50975 | 119.09382 | 33158 ft | 461 kts | 19° |
| 2026-05-05 11:00 | 10.57041 | 119.11528 | 33100 ft | 461 kts | 18° |
| 2026-05-05 11:01 | 10.63118 | 119.13607 | 33042 ft | 461 kts | 18° |
| 2026-05-05 11:01 | 10.69207 | 119.15617 | 32995 ft | 461 kts | 17° |
| 2026-05-05 11:02 | 10.75330 | 119.17562 | 32926 ft | 460 kts | 16° |
| 2026-05-05 11:02 | 10.81468 | 119.19431 | 32858 ft | 460 kts | 15° |
| 2026-05-05 11:03 | 10.87574 | 119.21206 | 32816 ft | 459 kts | 15° |
| 2026-05-05 11:03 | 10.90493 | 119.22520 | 32971 ft | 460 kts | 33° |
| 2026-05-05 11:03 | 10.92923 | 119.24632 | 33216 ft | 461 kts | 49° |
| 2026-05-05 11:03 | 10.94752 | 119.27328 | 33479 ft | 463 kts | 58° |
| 2026-05-05 11:04 | 10.96474 | 119.30113 | 33746 ft | 465 kts | 54° |
| 2026-05-05 11:04 | 10.98520 | 119.32679 | 33864 ft | 468 kts | 45° |
| 2026-05-05 11:04 | 11.00952 | 119.34881 | 33870 ft | 468 kts | 36° |
| 2026-05-05 11:05 | 11.06520 | 119.38272 | 33872 ft | 468 kts | 25° |
| 2026-05-05 11:05 | 11.12467 | 119.41004 | 33872 ft | 468 kts | 22° |
| 2026-05-05 11:06 | 11.18456 | 119.43627 | 33870 ft | 469 kts | 22° |
| 2026-05-05 11:06 | 11.24440 | 119.46319 | 33570 ft | 477 kts | 23° |
| 2026-05-05 11:06 | 11.27488 | 119.47716 | 33311 ft | 484 kts | 24° |
| 2026-05-05 11:07 | 11.30565 | 119.49137 | 33060 ft | 486 kts | 24° |
| 2026-05-05 11:07 | 11.33643 | 119.50565 | 32810 ft | 487 kts | 24° |
| 2026-05-05 11:07 | 11.36734 | 119.52000 | 32560 ft | 488 kts | 24° |
| 2026-05-05 11:07 | 11.39823 | 119.53435 | 32322 ft | 489 kts | 24° |
| 2026-05-05 11:08 | 11.42926 | 119.54876 | 32068 ft | 490 kts | 24° |
| 2026-05-05 11:08 | 11.46026 | 119.56315 | 31818 ft | 491 kts | 24° |
| 2026-05-05 11:08 | 11.49097 | 119.57739 | 31590 ft | 491 kts | 24° |
| 2026-05-05 11:08 | 11.52206 | 119.59182 | 31351 ft | 491 kts | 24° |
| 2026-05-05 11:09 | 11.55322 | 119.60628 | 31126 ft | 490 kts | 24° |
| 2026-05-05 11:09 | 11.58426 | 119.62068 | 30887 ft | 488 kts | 24° |
| 2026-05-05 11:09 | 11.61514 | 119.63502 | 30663 ft | 487 kts | 25° |
| 2026-05-05 11:09 | 11.64594 | 119.64932 | 30426 ft | 485 kts | 25° |
| 2026-05-05 11:10 | 11.67662 | 119.66356 | 30200 ft | 484 kts | 24° |
| 2026-05-05 11:10 | 11.70841 | 119.67456 | 29977 ft | 482 kts | 14° |
| 2026-05-05 11:10 | 11.74097 | 119.68222 | 29715 ft | 480 kts | 12° |
| 2026-05-05 11:10 | 11.77371 | 119.68911 | 29441 ft | 479 kts | 11° |
| 2026-05-05 11:11 | 11.80596 | 119.69564 | 29182 ft | 477 kts | 11° |
| 2026-05-05 11:11 | 11.83883 | 119.70223 | 28941 ft | 474 kts | 11° |
| 2026-05-05 11:11 | 11.87119 | 119.70869 | 28672 ft | 472 kts | 11° |
| 2026-05-05 11:11 | 11.90295 | 119.71502 | 28413 ft | 470 kts | 11° |
| 2026-05-05 11:12 | 11.93542 | 119.72149 | 28157 ft | 468 kts | 11° |
| 2026-05-05 11:12 | 11.96696 | 119.72778 | 27909 ft | 467 kts | 11° |
| 2026-05-05 11:12 | 11.99886 | 119.73415 | 27660 ft | 465 kts | 11° |
| 2026-05-05 11:12 | 12.03050 | 119.74046 | 27413 ft | 463 kts | 11° |
| 2026-05-05 11:13 | 12.06211 | 119.74677 | 27172 ft | 461 kts | 11° |
| 2026-05-05 11:13 | 12.09358 | 119.75305 | 26931 ft | 459 kts | 11° |
| 2026-05-05 11:13 | 12.12500 | 119.75933 | 26687 ft | 458 kts | 11° |
| 2026-05-05 11:13 | 12.15589 | 119.76550 | 26454 ft | 456 kts | 11° |
| 2026-05-05 11:14 | 12.18696 | 119.77170 | 26218 ft | 455 kts | 12° |
| 2026-05-05 11:14 | 12.21796 | 119.77790 | 25979 ft | 453 kts | 12° |
| 2026-05-05 11:14 | 12.24887 | 119.78408 | 25754 ft | 452 kts | 12° |
| 2026-05-05 11:14 | 12.27964 | 119.79023 | 25535 ft | 450 kts | 12° |
| 2026-05-05 11:15 | 12.31045 | 119.79639 | 25294 ft | 448 kts | 12° |
| 2026-05-05 11:15 | 12.34101 | 119.80250 | 25063 ft | 447 kts | 12° |
| 2026-05-05 11:15 | 12.36121 | 119.80654 | 24919 ft | 446 kts | 12° |
| 2026-05-05 11:15 | 12.40154 | 119.81462 | 24619 ft | 444 kts | 12° |
| 2026-05-05 11:16 | 12.42206 | 119.81872 | 24464 ft | 443 kts | 12° |
| 2026-05-05 11:16 | 12.46203 | 119.82672 | 24170 ft | 441 kts | 12° |
| 2026-05-05 11:16 | 12.48239 | 119.83080 | 24029 ft | 440 kts | 12° |
| 2026-05-05 11:16 | 12.51205 | 119.83674 | 23814 ft | 439 kts | 12° |
| 2026-05-05 11:17 | 12.54192 | 119.84273 | 23602 ft | 437 kts | 12° |
| 2026-05-05 11:17 | 12.57169 | 119.84869 | 23381 ft | 436 kts | 12° |
| 2026-05-05 11:17 | 12.60140 | 119.85464 | 23109 ft | 435 kts | 12° |
| 2026-05-05 11:17 | 12.63105 | 119.86058 | 22848 ft | 432 kts | 12° |
| 2026-05-05 11:18 | 12.66057 | 119.86650 | 22599 ft | 430 kts | 12° |
| 2026-05-05 11:18 | 12.68988 | 119.87237 | 22344 ft | 428 kts | 12° |
| 2026-05-05 11:18 | 12.71915 | 119.87825 | 22103 ft | 427 kts | 12° |
| 2026-05-05 11:18 | 12.74820 | 119.88407 | 21848 ft | 425 kts | 12° |
| 2026-05-05 11:19 | 12.77722 | 119.88990 | 21603 ft | 423 kts | 12° |
| 2026-05-05 11:19 | 12.80563 | 119.89560 | 21361 ft | 421 kts | 12° |
| 2026-05-05 11:19 | 12.83429 | 119.90136 | 21113 ft | 419 kts | 12° |
| 2026-05-05 11:19 | 12.86291 | 119.90711 | 20877 ft | 418 kts | 12° |
| 2026-05-05 11:20 | 12.89146 | 119.91284 | 20635 ft | 416 kts | 12° |
| 2026-05-05 11:20 | 12.91984 | 119.91855 | 20391 ft | 414 kts | 12° |
| 2026-05-05 11:20 | 12.94808 | 119.92422 | 20153 ft | 412 kts | 12° |
| 2026-05-05 11:20 | 12.97615 | 119.92987 | 19944 ft | 411 kts | 12° |
| 2026-05-05 11:21 | 13.00422 | 119.93551 | 19708 ft | 409 kts | 12° |
| 2026-05-05 11:21 | 13.03221 | 119.94114 | 19469 ft | 408 kts | 12° |
| 2026-05-05 11:21 | 13.05960 | 119.94666 | 19248 ft | 407 kts | 12° |
| 2026-05-05 11:21 | 13.08743 | 119.95225 | 19021 ft | 405 kts | 12° |
| 2026-05-05 11:22 | 13.11508 | 119.95782 | 18801 ft | 404 kts | 12° |
| 2026-05-05 11:22 | 13.14255 | 119.96335 | 18579 ft | 402 kts | 12° |
| 2026-05-05 11:22 | 13.16996 | 119.96887 | 18359 ft | 401 kts | 12° |
| 2026-05-05 11:22 | 13.19740 | 119.97440 | 18138 ft | 399 kts | 12° |
| 2026-05-05 11:23 | 13.22418 | 119.97979 | 17880 ft | 397 kts | 12° |
| 2026-05-05 11:23 | 13.25130 | 119.98526 | 17628 ft | 396 kts | 12° |
| 2026-05-05 11:23 | 13.27826 | 119.99069 | 17375 ft | 394 kts | 12° |
| 2026-05-05 11:23 | 13.30514 | 119.99611 | 17122 ft | 392 kts | 12° |
| 2026-05-05 11:24 | 13.33181 | 120.00149 | 16879 ft | 390 kts | 12° |
| 2026-05-05 11:24 | 13.35845 | 120.00686 | 16644 ft | 388 kts | 12° |
| 2026-05-05 11:24 | 13.38493 | 120.01220 | 16393 ft | 386 kts | 12° |
| 2026-05-05 11:24 | 13.41131 | 120.01753 | 16143 ft | 385 kts | 12° |
| 2026-05-05 11:25 | 13.43749 | 120.02281 | 15934 ft | 383 kts | 12° |
| 2026-05-05 11:25 | 13.46339 | 120.02804 | 15881 ft | 382 kts | 12° |
| 2026-05-05 11:25 | 13.48948 | 120.03331 | 15844 ft | 381 kts | 12° |
| 2026-05-05 11:25 | 13.51518 | 120.03850 | 15561 ft | 373 kts | 12° |
| 2026-05-05 11:26 | 13.54023 | 120.04355 | 15432 ft | 359 kts | 12° |
| 2026-05-05 11:26 | 13.56440 | 120.04843 | 15346 ft | 346 kts | 12° |
| 2026-05-05 11:26 | 13.58754 | 120.05310 | 15255 ft | 333 kts | 12° |
| 2026-05-05 11:26 | 13.60964 | 120.05756 | 15153 ft | 321 kts | 12° |
| 2026-05-05 11:27 | 13.63131 | 120.06195 | 14866 ft | 316 kts | 12° |
| 2026-05-05 11:27 | 13.65295 | 120.06633 | 14475 ft | 316 kts | 12° |
| 2026-05-05 11:27 | 13.67458 | 120.07071 | 14116 ft | 315 kts | 12° |
| 2026-05-05 11:27 | 13.69601 | 120.07505 | 13777 ft | 313 kts | 12° |
| 2026-05-05 11:28 | 13.71730 | 120.07936 | 13422 ft | 310 kts | 12° |
| 2026-05-05 11:28 | 13.73822 | 120.08359 | 13042 ft | 309 kts | 13° |
| 2026-05-05 11:28 | 13.75933 | 120.08787 | 12659 ft | 307 kts | 13° |
| 2026-05-05 11:28 | 13.78029 | 120.09211 | 12272 ft | 306 kts | 13° |
| 2026-05-05 11:29 | 13.80111 | 120.09632 | 11902 ft | 304 kts | 13° |
| 2026-05-05 11:29 | 13.82179 | 120.10051 | 11538 ft | 302 kts | 13° |
| 2026-05-05 11:29 | 13.84242 | 120.10482 | 11181 ft | 301 kts | 15° |
| 2026-05-05 11:29 | 13.86235 | 120.11117 | 11019 ft | 300 kts | 23° |
| 2026-05-05 11:30 | 13.88161 | 120.11928 | 10995 ft | 299 kts | 25° |
| 2026-05-05 11:30 | 13.90078 | 120.12786 | 10993 ft | 299 kts | 26° |
| 2026-05-05 11:30 | 13.91963 | 120.13641 | 10992 ft | 299 kts | 26° |
| 2026-05-05 11:30 | 13.93887 | 120.14513 | 10990 ft | 299 kts | 25° |
| 2026-05-05 11:31 | 13.95792 | 120.15374 | 10993 ft | 299 kts | 25° |
| 2026-05-05 11:31 | 13.97677 | 120.16226 | 10989 ft | 299 kts | 25° |
| 2026-05-05 11:31 | 13.99588 | 120.17088 | 10991 ft | 299 kts | 25° |
| 2026-05-05 11:31 | 14.01499 | 120.17950 | 10993 ft | 299 kts | 25° |
| 2026-05-05 11:32 | 14.03400 | 120.18808 | 10995 ft | 299 kts | 25° |
| 2026-05-05 11:32 | 14.05300 | 120.19665 | 10991 ft | 299 kts | 25° |
| 2026-05-05 11:32 | 14.07184 | 120.20515 | 10996 ft | 299 kts | 25° |
| 2026-05-05 11:32 | 14.09085 | 120.21373 | 10993 ft | 299 kts | 25° |
| 2026-05-05 11:33 | 14.10983 | 120.22230 | 10991 ft | 299 kts | 25° |
| 2026-05-05 11:33 | 14.12890 | 120.23091 | 10984 ft | 298 kts | 25° |
| 2026-05-05 11:33 | 14.14792 | 120.23949 | 10672 ft | 297 kts | 25° |
| 2026-05-05 11:33 | 14.16686 | 120.24804 | 10418 ft | 297 kts | 25° |
| 2026-05-05 11:34 | 14.18572 | 120.25656 | 10266 ft | 296 kts | 25° |
| 2026-05-05 11:34 | 14.20463 | 120.26510 | 10125 ft | 295 kts | 25° |
| 2026-05-05 11:34 | 14.22314 | 120.27347 | 9990 ft | 294 kts | 25° |
| 2026-05-05 11:34 | 14.24187 | 120.28193 | 9858 ft | 293 kts | 25° |
| 2026-05-05 11:35 | 14.26052 | 120.29036 | 9715 ft | 292 kts | 25° |
| 2026-05-05 11:35 | 14.27911 | 120.29876 | 9564 ft | 291 kts | 25° |
| 2026-05-05 11:35 | 14.29786 | 120.30724 | 9419 ft | 291 kts | 25° |
| 2026-05-05 11:35 | 14.31621 | 120.31554 | 9261 ft | 290 kts | 25° |
| 2026-05-05 11:36 | 14.33473 | 120.32391 | 9109 ft | 290 kts | 25° |
| 2026-05-05 11:36 | 14.35318 | 120.33226 | 8962 ft | 289 kts | 25° |
| 2026-05-05 11:36 | 14.37158 | 120.34059 | 8815 ft | 288 kts | 25° |
| 2026-05-05 11:36 | 14.38992 | 120.34889 | 8672 ft | 288 kts | 25° |
| 2026-05-05 11:37 | 14.40824 | 120.35718 | 8519 ft | 287 kts | 25° |
| 2026-05-05 11:37 | 14.42628 | 120.36604 | 8375 ft | 285 kts | 32° |
| 2026-05-05 11:37 | 14.44201 | 120.37827 | 8225 ft | 282 kts | 47° |
| 2026-05-05 11:37 | 14.45388 | 120.39412 | 8072 ft | 280 kts | 58° |
| 2026-05-05 11:38 | 14.46387 | 120.41125 | 7927 ft | 279 kts | 61° |
| 2026-05-05 11:38 | 14.47334 | 120.42841 | 7619 ft | 276 kts | 61° |
| 2026-05-05 11:38 | 14.48279 | 120.44562 | 7290 ft | 273 kts | 61° |
| 2026-05-05 11:38 | 14.49218 | 120.46265 | 6927 ft | 273 kts | 61° |
| 2026-05-05 11:39 | 14.50162 | 120.47968 | 6591 ft | 272 kts | 61° |
| 2026-05-05 11:39 | 14.51106 | 120.49666 | 6352 ft | 270 kts | 61° |
| 2026-05-05 11:39 | 14.52037 | 120.51337 | 6027 ft | 269 kts | 61° |
| 2026-05-05 11:39 | 14.52972 | 120.53013 | 5662 ft | 269 kts | 61° |
| 2026-05-05 11:40 | 14.53897 | 120.54667 | 5312 ft | 269 kts | 61° |
| 2026-05-05 11:40 | 14.54831 | 120.56340 | 5055 ft | 264 kts | 61° |
| 2026-05-05 11:40 | 14.55731 | 120.57952 | 4895 ft | 256 kts | 61° |
| 2026-05-05 11:40 | 14.56604 | 120.59517 | 4729 ft | 248 kts | 62° |
| 2026-05-05 11:41 | 14.57457 | 120.61045 | 4568 ft | 244 kts | 62° |
| 2026-05-05 11:41 | 14.58304 | 120.62565 | 4391 ft | 243 kts | 62° |
| 2026-05-05 11:41 | 14.59131 | 120.64062 | 4218 ft | 242 kts | 63° |
| 2026-05-05 11:41 | 14.59761 | 120.65670 | 4048 ft | 240 kts | 78° |
| 2026-05-05 11:42 | 14.59878 | 120.67367 | 3877 ft | 236 kts | 97° |
| 2026-05-05 11:42 | 14.59421 | 120.68957 | 3739 ft | 227 kts | 116° |
| 2026-05-05 11:42 | 14.58516 | 120.70222 | 3613 ft | 215 kts | 134° |
| 2026-05-05 11:42 | 14.57326 | 120.71140 | 3302 ft | 214 kts | 146° |
| 2026-05-05 11:43 | 14.56020 | 120.71920 | 3043 ft | 219 kts | 149° |
| 2026-05-05 11:43 | 14.54668 | 120.72658 | 2997 ft | 220 kts | 153° |
| 2026-05-05 11:43 | 14.53200 | 120.73088 | 2996 ft | 222 kts | 171° |
| 2026-05-05 11:43 | 14.51677 | 120.72934 | 2993 ft | 226 kts | 195° |
| 2026-05-05 11:44 | 14.50309 | 120.72118 | 3003 ft | 232 kts | 220° |
| 2026-05-05 11:44 | 14.49308 | 120.70804 | 3004 ft | 234 kts | 236° |
| 2026-05-05 11:44 | 14.48484 | 120.69346 | 2999 ft | 235 kts | 239° |
| 2026-05-05 11:44 | 14.47693 | 120.67868 | 3003 ft | 235 kts | 239° |
| 2026-05-05 11:45 | 14.46902 | 120.66395 | 3005 ft | 234 kts | 239° |
| 2026-05-05 11:45 | 14.45916 | 120.65068 | 3001 ft | 233 kts | 220° |
| 2026-05-05 11:45 | 14.44562 | 120.64211 | 2998 ft | 228 kts | 193° |
| 2026-05-05 11:45 | 14.43031 | 120.64175 | 3001 ft | 218 kts | 163° |
| 2026-05-05 11:46 | 14.41614 | 120.64706 | 3005 ft | 217 kts | 153° |
| 2026-05-05 11:46 | 14.40248 | 120.65382 | 3005 ft | 217 kts | 151° |
| 2026-05-05 11:46 | 14.38903 | 120.66076 | 3003 ft | 218 kts | 151° |
| 2026-05-05 11:46 | 14.37550 | 120.66773 | 3004 ft | 217 kts | 150° |
| 2026-05-05 11:47 | 14.36202 | 120.67463 | 3009 ft | 216 kts | 151° |
| 2026-05-05 11:47 | 14.34904 | 120.68250 | 3004 ft | 214 kts | 134° |
| 2026-05-05 11:47 | 14.34282 | 120.69587 | 3015 ft | 210 kts | 100° |
| 2026-05-05 11:47 | 14.34252 | 120.71080 | 3016 ft | 211 kts | 76° |
| 2026-05-05 11:48 | 14.35656 | 120.73752 | 3056 ft | 214 kts | 62° |
| 2026-05-05 11:48 | 14.36393 | 120.75048 | 3069 ft | 197 kts | 63° |
| 2026-05-05 11:48 | 14.37015 | 120.76213 | 3076 ft | 181 kts | 64° |
| 2026-05-05 11:49 | 14.37598 | 120.77341 | 3087 ft | 174 kts | 64° |
| 2026-05-05 11:49 | 14.38151 | 120.78383 | 3120 ft | 161 kts | 63° |
| 2026-05-05 11:49 | 14.38697 | 120.79384 | 3123 ft | 157 kts | 63° |
| 2026-05-05 11:49 | 14.39219 | 120.80342 | 3129 ft | 150 kts | 64° |
| 2026-05-05 11:50 | 14.39710 | 120.81257 | 3149 ft | 142 kts | 64° |
| 2026-05-05 11:50 | 14.40183 | 120.82140 | 3169 ft | 140 kts | 64° |
| 2026-05-05 11:50 | 14.40650 | 120.83008 | 3183 ft | 140 kts | 65° |
| 2026-05-05 11:50 | 14.41124 | 120.83888 | 3196 ft | 140 kts | 64° |
| 2026-05-05 11:51 | 14.41596 | 120.84764 | 3224 ft | 139 kts | 64° |
| 2026-05-05 11:51 | 14.42068 | 120.85642 | 3150 ft | 140 kts | 64° |
| 2026-05-05 11:51 | 14.42539 | 120.86517 | 2965 ft | 139 kts | 65° |
| 2026-05-05 11:51 | 14.43002 | 120.87379 | 2738 ft | 139 kts | 64° |
| 2026-05-05 11:52 | 14.43469 | 120.88247 | 2561 ft | 138 kts | 64° |
| 2026-05-05 11:52 | 14.43935 | 120.89112 | 2371 ft | 138 kts | 64° |
| 2026-05-05 11:52 | 14.44403 | 120.89981 | 2211 ft | 138 kts | 65° |
| 2026-05-05 11:52 | 14.44866 | 120.90844 | 2024 ft | 137 kts | 65° |
| 2026-05-05 11:53 | 14.45329 | 120.91705 | 1849 ft | 137 kts | 64° |
| 2026-05-05 11:53 | 14.45791 | 120.92565 | 1673 ft | 137 kts | 64° |
| 2026-05-05 11:53 | 14.46254 | 120.93423 | 1498 ft | 136 kts | 66° |
| 2026-05-05 11:53 | 14.46712 | 120.94277 | 1302 ft | 136 kts | 66° |
| 2026-05-05 11:54 | 14.47170 | 120.95129 | 1138 ft | 136 kts | 64° |
| 2026-05-05 11:54 | 14.47627 | 120.95977 | 967 ft | 135 kts | 65° |
| 2026-05-05 11:54 | 14.48073 | 120.96819 | 815 ft | 135 kts | 64° |
| 2026-05-05 11:54 | 14.48510 | 120.97671 | 584 ft | 133 kts | 64° |
| 2026-05-05 11:55 | 14.48965 | 120.98515 | 462 ft | 135 kts | 63° |
| 2026-05-05 11:55 | 14.49293 | 120.99056 | 332 ft | 134 kts | 62° |
| 2026-05-05 11:55 | 14.49894 | 121.00185 | 139 ft | 134 kts | 64° |
| 2026-05-05 11:55 | 14.50426 | 121.01119 | 493 ft | 164 kts | 60° |
| 2026-05-05 11:56 | 14.50990 | 121.02116 | 1544 ft | 140 kts | 63° |
| 2026-05-05 11:56 | 14.51400 | 121.02823 | 2569 ft | 95 kts | 62° |
| 2026-05-05 11:56 | 14.51757 | 121.03417 | 2776 ft | 106 kts | 61° |
| 2026-05-05 11:56 | 14.52179 | 121.04120 | 2946 ft | 126 kts | 62° |
| 2026-05-05 11:57 | 14.52665 | 121.04951 | 3180 ft | 146 kts | 63° |
| 2026-05-05 11:57 | 14.53203 | 121.05962 | 3371 ft | 175 kts | 63° |
| 2026-05-05 11:57 | 14.53845 | 121.07169 | 3526 ft | 209 kts | 63° |
| 2026-05-05 11:57 | 14.54599 | 121.08554 | 3993 ft | 227 kts | 62° |
| 2026-05-05 11:58 | 14.55297 | 121.10000 | 4974 ft | 223 kts | 72° |
| 2026-05-05 11:58 | 14.55540 | 121.11552 | 5943 ft | 218 kts | 93° |
| 2026-05-05 11:58 | 14.55141 | 121.13060 | 6599 ft | 221 kts | 118° |
| 2026-05-05 11:58 | 14.54570 | 121.13881 | 6821 ft | 224 kts | 129° |
| 2026-05-05 11:59 | 14.53264 | 121.15171 | 6981 ft | 229 kts | 140° |
| 2026-05-05 11:59 | 14.51992 | 121.16164 | 6994 ft | 229 kts | 139° |
| 2026-05-05 11:59 | 14.50777 | 121.17235 | 6994 ft | 229 kts | 136° |
| 2026-05-05 11:59 | 14.49533 | 121.18274 | 6998 ft | 231 kts | 144° |
| 2026-05-05 12:00 | 14.48067 | 121.18960 | 7000 ft | 233 kts | 165° |
| 2026-05-05 12:00 | 14.46444 | 121.18936 | 7001 ft | 238 kts | 195° |
| 2026-05-05 12:00 | 14.45038 | 121.18047 | 6998 ft | 241 kts | 228° |
| 2026-05-05 12:00 | 14.44319 | 121.16527 | 7003 ft | 242 kts | 262° |
| 2026-05-05 12:01 | 14.44502 | 121.14835 | 7003 ft | 241 kts | 293° |
| 2026-05-05 12:01 | 14.45251 | 121.13276 | 6997 ft | 242 kts | 298° |
| 2026-05-05 12:01 | 14.46036 | 121.11734 | 6996 ft | 243 kts | 298° |
| 2026-05-05 12:01 | 14.46817 | 121.10188 | 6993 ft | 243 kts | 298° |
| 2026-05-05 12:02 | 14.47594 | 121.08637 | 6994 ft | 244 kts | 298° |
| 2026-05-05 12:02 | 14.48358 | 121.07102 | 6993 ft | 244 kts | 298° |
| 2026-05-05 12:02 | 14.49136 | 121.05534 | 6991 ft | 245 kts | 298° |
| 2026-05-05 12:02 | 14.49888 | 121.03959 | 6989 ft | 244 kts | 290° |
| 2026-05-05 12:03 | 14.50032 | 121.02241 | 6990 ft | 242 kts | 258° |
| 2026-05-05 12:03 | 14.49324 | 121.00688 | 6993 ft | 241 kts | 230° |
| 2026-05-05 12:03 | 14.48185 | 120.99435 | 6734 ft | 242 kts | 221° |
| 2026-05-05 12:03 | 14.46949 | 120.98252 | 6463 ft | 242 kts | 220° |
| 2026-05-05 12:04 | 14.45691 | 120.97078 | 6272 ft | 239 kts | 220° |
| 2026-05-05 12:04 | 14.44463 | 120.95931 | 6014 ft | 238 kts | 220° |
| 2026-05-05 12:04 | 14.43252 | 120.94795 | 5742 ft | 238 kts | 220° |
| 2026-05-05 12:04 | 14.42002 | 120.93628 | 5318 ft | 246 kts | 220° |
| 2026-05-05 12:05 | 14.40708 | 120.92430 | 4825 ft | 251 kts | 220° |
| 2026-05-05 12:05 | 14.39424 | 120.91237 | 4385 ft | 244 kts | 220° |
| 2026-05-05 12:05 | 14.38181 | 120.90062 | 3900 ft | 239 kts | 220° |
| 2026-05-05 12:05 | 14.36978 | 120.88910 | 3419 ft | 235 kts | 220° |
| 2026-05-05 12:06 | 14.35793 | 120.87758 | 2941 ft | 232 kts | 220° |
| 2026-05-05 12:06 | 14.34809 | 120.86463 | 2466 ft | 232 kts | 238° |
| 2026-05-05 12:06 | 14.34359 | 120.84885 | 1995 ft | 233 kts | 267° |
| 2026-05-05 12:06 | 14.34733 | 120.83303 | 1769 ft | 221 kts | 300° |
| 2026-05-05 12:07 | 14.35778 | 120.82347 | 1725 ft | 192 kts | 341° |
| 2026-05-05 12:07 | 14.36992 | 120.82031 | 1717 ft | 174 kts | 0° |
| 2026-05-05 12:07 | 14.38161 | 120.81900 | 1711 ft | 162 kts | 5° |
| 2026-05-05 12:07 | 14.39183 | 120.82107 | 1709 ft | 139 kts | 33° |
| 2026-05-05 12:08 | 14.39924 | 120.82682 | 1723 ft | 133 kts | 49° |
| 2026-05-05 12:08 | 14.40610 | 120.83341 | 1719 ft | 135 kts | 49° |
| 2026-05-05 12:08 | 14.41235 | 120.84058 | 1712 ft | 133 kts | 60° |
| 2026-05-05 12:08 | 14.41709 | 120.84881 | 1710 ft | 134 kts | 64° |
| 2026-05-05 12:09 | 14.42154 | 120.85733 | 1708 ft | 135 kts | 65° |
| 2026-05-05 12:09 | 14.42585 | 120.86592 | 1712 ft | 135 kts | 65° |
| 2026-05-05 12:09 | 14.43021 | 120.87442 | 1716 ft | 134 kts | 65° |
| 2026-05-05 12:09 | 14.43477 | 120.88292 | 1712 ft | 135 kts | 64° |
| 2026-05-05 12:10 | 14.43921 | 120.89095 | 1675 ft | 128 kts | 65° |
| 2026-05-05 12:10 | 14.44364 | 120.89904 | 1708 ft | 130 kts | 65° |
| 2026-05-05 12:10 | 14.44803 | 120.90718 | 1709 ft | 130 kts | 65° |
| 2026-05-05 12:10 | 14.45239 | 120.91535 | 1709 ft | 130 kts | 65° |
| 2026-05-05 12:11 | 14.45676 | 120.92352 | 1712 ft | 129 kts | 65° |
| 2026-05-05 12:11 | 14.46112 | 120.93161 | 1598 ft | 129 kts | 66° |
| 2026-05-05 12:11 | 14.46553 | 120.93980 | 1388 ft | 131 kts | 65° |
| 2026-05-05 12:11 | 14.46989 | 120.94794 | 1225 ft | 131 kts | 64° |
| 2026-05-05 12:12 | 14.47426 | 120.95603 | 1053 ft | 129 kts | 66° |
| 2026-05-05 12:12 | 14.47862 | 120.96416 | 908 ft | 129 kts | 63° |
| 2026-05-05 12:12 | 14.48296 | 120.97223 | 738 ft | 129 kts | 65° |
| 2026-05-05 12:12 | 14.48734 | 120.98039 | 585 ft | 128 kts | 65° |
| 2026-05-05 12:13 | 14.49160 | 120.98824 | 418 ft | 128 kts | 62° |
| 2026-05-05 12:13 | 14.49574 | 120.99637 | 278 ft | 129 kts | 63° |
| 2026-05-05 12:13 | 14.50029 | 121.00447 | 85 ft | 128 kts | 63° |
| 2026-05-05 12:13 | 14.50376 | 121.01071 | 65 ft | 60 kts | 59° |
| 2026-05-05 12:14 | 14.50503 | 121.01299 | 67 ft | 33 kts | 62° |
| 2026-05-05 12:14 | 14.50615 | 121.01501 | 64 ft | 33 kts | 60° |
| 2026-05-05 12:14 | 14.50735 | 121.01695 | 62 ft | 31 kts | 47° |
| 2026-05-05 12:14 | 14.50854 | 121.01785 | 65 ft | 16 kts | 16° |
| 2026-05-05 12:15 | 14.50898 | 121.01772 | 67 ft | 3 kts | 300° |
| 2026-05-05 12:15 | 14.50902 | 121.01744 | 69 ft | 7 kts | 269° |
| 2026-05-05 12:15 | 14.50881 | 121.01696 | 65 ft | 8 kts | 240° |
| 2026-05-05 12:15 | 14.50848 | 121.01641 | 62 ft | 10 kts | 239° |
| 2026-05-05 12:16 | 14.50810 | 121.01573 | 62 ft | 12 kts | 240° |
| 2026-05-05 12:16 | 14.50765 | 121.01492 | 62 ft | 14 kts | 240° |
| 2026-05-05 12:16 | 14.50715 | 121.01401 | 63 ft | 15 kts | 240° |
| 2026-05-05 12:16 | 14.50659 | 121.01301 | 62 ft | 17 kts | 240° |
| 2026-05-05 12:17 | 14.50598 | 121.01192 | 62 ft | 19 kts | 240° |
| 2026-05-05 12:17 | 14.50530 | 121.01070 | 62 ft | 20 kts | 240° |
| 2026-05-05 12:17 | 14.50456 | 121.00938 | 69 ft | 22 kts | 240° |
| 2026-05-05 12:17 | 14.50453 | 121.00841 | 64 ft | 10 kts | 333° |
| 2026-05-05 12:18 | 14.50492 | 121.00804 | 63 ft | 4 kts | 288° |
| 2026-05-05 12:18 | 14.50497 | 121.00768 | 64 ft | 6 kts | 277° |
| 2026-05-05 12:18 | 14.50503 | 121.00719 | 69 ft | 0 kts | 277° |
| 2026-05-05 12:18 | 14.50503 | 121.00716 | 70 ft | 0 kts | 277° |